Carson Sink, Nevada Weather observations

Data are for observation ending at time listed.
 Day   Time    Ave.   Ave.  Ave.  Vector   Max.   Stn.    Total    Solar   Ave.  
  of    of     Air    Rel.  Wind   Wind    Wind   Baro.  Precip.   Rad.    Soil  
Year   Day     Temp.  Hum.  Speed  Dir.    Gust   Pres.                    Temp. 
2014   (PST)    F      %     mph   deg.    mph     mb.     in.     W/m2     F   
------------------------------------------------------------------------------
 274    1:30   44.5    50    6.2   359      7.2   884.5    0.00       0     64.0
 274    1:40   43.2    50    6.4   350      7.5   884.5    0.00       0     63.9
 274    1:50   42.1    53    5.6   350      6.4   884.4    0.00       0     63.7
 274    2:00   42.3    53    5.8     8      6.8   884.4    0.00       0     63.5
 274    2:10   41.0    56    5.8     7      6.8   884.4    0.00       0     63.3
 274    2:20   39.8    57    5.9   340      7.6   884.5    0.00       0     63.2
 274    2:30   41.1    56    8.0   354      9.1   884.6    0.00       0     63.0
 274    2:40   42.9    54    8.1    12      9.6   884.6    0.00       0     62.9
 274    2:50   43.5    54    8.3    18     10.2   884.6    0.00       0     62.7
 274    3:00   42.3    56    6.1     1      8.4   884.7    0.00       0     62.5
 274    3:10   41.3    58    6.4     8      7.5   884.8    0.00       0     62.4
 274    3:20   40.8    58    6.5   360      7.5   885.0    0.00       0     62.2
 274    3:30   40.5    58    6.1     4      7.1   885.0    0.00       0     62.1
 274    3:40   39.8    58    5.3   356      6.4   885.1    0.00       0     61.9
 274    3:50   39.4    58    5.0     1      6.1   885.2    0.00       0     61.8
 274    4:00   39.1    58    6.1   355      6.7   885.3    0.00       0     61.6
 274    4:10   39.7    58    5.5   348      6.6   885.4    0.00       0     61.4
 274    4:20   40.5    57    5.8   356      6.5   885.5    0.00       0     61.3
 274    4:30   40.5    57    6.5     0      7.5   885.6    0.00       0     61.2
 274    4:40   40.8    56    6.6    10      7.8   885.7    0.00       0     61.0
 274    4:50   40.6    57    5.7     1      6.8   885.8    0.00       0     60.9
 274    5:00   40.8    58    5.4    18      7.7   885.9    0.00       0     60.7
 274    5:10   40.0    59    5.2   358      7.7   886.0    0.00       0     60.6
 274    5:20   41.0    59    6.2     8      7.7   886.0    0.00       0     60.5
 274    5:30   40.3    59    3.7     8      5.1   886.0    0.00       0     60.3
 274    5:40   38.2    62    4.4   354      5.6   886.0    0.00       0     60.2
 274    5:50   37.7    63    5.0     5      6.4   886.0    0.00       3     60.1
 274    6:00   37.8    64    7.2    15     10.4   886.2    0.00       7     59.9
 274    6:10   39.2    63    9.6    17     11.1   886.3    0.00      21     59.8
 274    6:20   40.1    62    9.1    14     10.7   886.5    0.00      63     59.7
 274    6:30   40.9    62    9.5    10     11.2   886.7    0.00     101     59.6
 274    6:40   41.8    60    9.2    11     11.1   886.9    0.00     135     59.4
 274    6:50   43.1    58    8.5    16     10.4   886.9    0.00     168     59.3
 274    7:00   43.7    57    6.8     2      9.2   887.1    0.00     199     59.3
 274    7:10   44.5    56    8.2     5     10.9   887.3    0.00     230     59.1
 274    7:20   45.7    55    8.9     7     10.7   887.5    0.00     262     59.1
 274    7:30   46.9    53    9.2    25     12.1   887.6    0.00     295     59.0
 274    7:40   47.9    51    9.4    32     12.1   887.5    0.00     326     59.0
 274    7:50   48.7    49    9.0    37     11.0   887.5    0.00     356     58.9
 274    8:00   49.7    48    8.7    37     11.3   887.6    0.00     386     58.9
 274    8:10   50.5    46    8.6    40     11.1   887.7    0.00     414     58.9
 274    8:20   50.7    46    8.5    28     11.9   887.8    0.00     442     59.0
 274    8:30   51.5    44    8.9    26     12.6   887.8    0.00     469     59.1
 274    8:40   52.3    42    8.7    34     12.1   887.8    0.00     495     59.2
 274    8:50   53.2    39    8.2    31     12.0   887.8    0.00     520     59.3
 274    9:00   53.7    38    7.4    23     11.2   887.9    0.00     544     59.5
 274    9:10   53.8    37    7.1    22     11.2   887.9    0.00     567     59.6
 274    9:20   54.5    36    6.3    13     10.2   888.0    0.00     588     59.8
 274    9:30   55.0    35    6.7    10     10.1   888.0    0.00     608     60.0
 274    9:40   55.4    34    6.1    12     10.6   887.9    0.00     628     60.3
 274    9:50   55.6    34    4.6    17      9.2   887.9    0.00     646     60.5
 274   10:00   56.2    33    5.6    10      9.1   887.9    0.00     662     60.8
 274   10:10   56.5    32    4.3    59     11.4   887.8    0.00     677     61.2
 274   10:20   56.8    31    3.6   118      6.7   887.8    0.00     690     61.4
 274   10:30   57.3    31    2.8     1      7.5   887.7    0.00     700     61.8
 274   10:40   58.2    30    2.2   334      7.7   887.7    0.00     714     62.2
 274   10:50   58.1    29    3.8   290      6.8   887.7    0.00     723     62.5
 274   11:00   57.8    28    5.5   325      9.6   887.7    0.00     727     62.9
 274   11:10   58.0    27    4.9   312     10.3   887.7    0.00     735     63.3
 274   11:20   58.9    26    4.4    80      8.3   887.7    0.00     737     63.7
 274   11:30   59.2    26    3.8    50      9.5   887.6    0.00     739     64.1
 274   11:40   59.5    26    4.0   346     10.3   887.5    0.00     739     64.5
 274   11:50   59.1    27    5.1   350     11.8   887.3    0.00     739     65.0
 274   12:00   59.8    27    2.0    65      5.7   887.2    0.00     736     65.4
 274   12:10   59.9    26    4.0   120     11.1   887.0    0.00     733     65.8
 274   12:20   60.5    24    7.1   108     12.2   886.7    0.00     728     66.2
 274   12:30   60.0    23    6.2    96     10.6   886.5    0.00     722     66.6
 274   12:40   60.2    23    3.7   309      8.0   886.5    0.00     712     67.0
 274   12:50   61.3    22    6.1    55     20.8   886.3    0.00     702     67.5
 274   13:00   61.3    21    4.0    69     12.7   886.3    0.00     691     67.9
 274   13:10   61.3    19    6.9    23     12.6   886.3    0.00     675     68.3
 274   13:20   61.4    20    5.7    24     11.8   886.2    0.00     659     68.6
 274   13:30   61.8    19    3.5    78      7.8   886.2    0.00     644     69.0
 274   13:40   62.8    18    2.6   136      5.6   886.1    0.00     627     69.3
 274   13:50   63.5    17    5.4   351     13.8   886.1    0.00     609     69.7
 274   14:00   62.5    18    6.6    54     11.6   886.1    0.00     586     70.0
 274   14:10   63.0    18    4.8    38     11.0   886.2    0.00     564     70.3
 274   14:20   63.1    18    4.9   318      9.4   886.2    0.00     543     70.6
 274   14:30   63.7    17    4.0   211      8.3   886.2    0.00     517     70.9
 274   14:40   64.4    16    4.4   298      8.3   886.1    0.00     494     71.2
 274   14:50   63.8    16    3.1   346      6.7   886.0    0.00     469     71.4
 274   15:00   64.2    16    2.1   317      5.0   886.0    0.00     443     71.7
 274   15:10   64.0    17    4.1    60      8.0   886.0    0.00     414     71.8
 274   15:20   63.9    17    3.6    87      8.6   886.0    0.00     386     72.0
 274   15:30   64.5    17    2.5   206      6.5   886.0    0.00     358     72.1
 274   15:40   64.4    17    4.1   145      7.7   886.0    0.00     328     72.1
 274   15:50   65.4    16    1.9   243      5.2   885.9    0.00     299     72.2
 274   16:00   64.5    16    5.3    21     11.0   885.9    0.00     268     72.2
 274   16:10   63.9    16    5.6    23      9.9   885.9    0.00     238     72.2
 274   16:20   63.8    17    4.5    17      9.3   885.9    0.00     209     72.2
 274   16:30   64.2    16    2.6    11      6.8   886.0    0.00     179     72.2
 274   16:40   64.3    16    2.0    69      4.5   886.1    0.00     148     72.2
 274   16:50   64.3    17    4.9     6      9.1   886.1    0.00     110     72.1
 274   17:00   63.7    17    6.0    32      8.7   886.1    0.00      72     72.1
 274   17:10   63.3    18    3.2    28      6.3   886.1    0.00      42     72.0
 274   17:20   63.2    19    4.6    14      9.2   886.2    0.00      20     71.9
 274   17:30   62.8    20    5.9     4      8.4   886.3    0.00      10     71.8
 274   17:40   62.3    20    4.5   345      7.2   886.4    0.00       6     71.7
 274   17:50   61.8    21    4.5   357      6.1   886.5    0.00       2     71.6
 274   18:00   61.2    23    5.5   348      7.0   886.6    0.00       0     71.4
 274   18:10   59.9    26    4.6   337      5.7   886.7    0.00       0     71.3
 274   18:20   58.5    28    4.8   329      5.9   886.7    0.00       0     71.0
 274   18:30   57.6    29    3.9   340      4.4   886.7    0.00       0     70.8
 274   18:40   57.7    29    3.2   341      3.9   886.7    0.00       0     70.6
 274   18:50   56.9    30    3.4   345      3.7   886.7    0.00       0     70.4
 274   19:00   56.5    31    3.1     0      3.6   886.8    0.00       0     70.2
 274   19:10   55.7    32    2.8   349      3.1   886.9    0.00       0     69.9
 274   19:20   54.8    32    3.0   357      3.6   887.1    0.00       0     69.7
 274   19:30   53.5    34    3.6    16      6.7   887.1    0.00       0     69.5
 274   19:40   52.3    36    5.2    45      7.5   887.2    0.00       0     69.2
 274   19:50   51.6    37    4.1    56      5.1   887.3    0.00       0     69.0
 274   20:00   50.8    34    4.4    75      5.3   887.3    0.00       0     68.7
 274   20:10   50.4    34    4.3    78      4.9   887.4    0.00       0     68.5
 274   20:20   49.9    36    4.0    55      6.5   887.4    0.00       0     68.3
 274   20:30   50.3    37    6.4    36      8.8   887.4    0.00       0     68.1
 274   20:40   49.2    39    7.1    41      9.7   887.4    0.00       0     67.8
 274   20:50   49.0    38    7.9    34      9.4   887.5    0.00       0     67.6
 274   21:00   48.3    39    7.2    35      8.5   887.7    0.00       0     67.4
 274   21:10   47.4    41    6.9    36      7.8   887.7    0.00       0     67.1
 274   21:20   47.4    42    7.4    36      9.6   887.7    0.00       0     66.9
 274   21:30   47.5    42    8.5    37      9.7   887.7    0.00       0     66.7
 274   21:40   47.5    41    8.5    35     10.0   887.8    0.00       0     66.5
 274   21:50   47.5    40    8.5    30     10.2   887.8    0.00       0     66.2
 274   22:00   47.4    39    7.3    30      8.8   887.9    0.00       0     66.0
 274   22:10   47.1    39    7.8    30      9.2   887.9    0.00       0     65.8
 274   22:20   47.0    39    7.8    33      9.1   887.9    0.00       0     65.6
 274   22:30   47.0    39    7.7    40      8.8   887.8    0.00       0     65.4
 274   22:40   46.9    39    7.4    44      8.5   887.8    0.00       0     65.2
 274   22:50   46.6    40    7.4    47      9.5   887.9    0.00       0     65.0
 274   23:00   46.6    40    8.2    39      9.6   887.9    0.00       0     64.8
 274   23:10   46.3    41    8.8    40     10.4   887.9    0.00       0     64.6
 274   23:20   46.1    41    8.3    43     10.1   888.0    0.00       0     64.5
 274   23:30   45.5    42    9.1    39     11.1   888.0    0.00       0     64.3
 274   23:40   45.2    43    9.0    33     10.8   888.0    0.00       0     64.1
 274   23:50   44.9    44    8.1    36      9.7   888.0    0.00       0     63.9
 275    0:00   44.1    45    7.1    23      8.4   888.0    0.00       0     63.8
 275    0:10   43.5    46    5.9    32      7.5   888.0    0.00       0     63.6
 275    0:20   43.1    47    5.5    25      6.5   888.1    0.00       0     63.4
 275    0:30   42.6    48    6.0    17      6.9   888.2    0.00       0     63.2
 275    0:40   42.2    48    6.1    23      7.5   888.3    0.00       0     63.0
 275    0:50   42.1    48    6.8    29      8.9   888.4    0.00       0     62.9
 275    1:00   41.6    48    8.0    30     10.7   888.4    0.00       0     62.7
 275    1:10   41.8    49    8.1    32     11.2   888.4    0.00       0     62.6
 275    1:20   41.6    50    7.2    24      9.2   888.4    0.00       0     62.4

Return to Carson Sink graphs page.


Western Regional Climate Center,wrcc@dri.edu